sensor_id;sensor_type;location;lat;lon;timestamp;pressure;altitude;pressure_sealevel;temperature;humidity
59053;BME280;44843;44.728;10.396;2022-11-15T00:01:29;100937.13;;;10.70;100.00
59053;BME280;44843;44.728;10.396;2022-11-15T00:03:54;100935.81;;;10.62;100.00
59053;BME280;44843;44.728;10.396;2022-11-15T00:06:20;100938.28;;;10.65;100.00
59053;BME280;44843;44.728;10.396;2022-11-15T00:08:45;100934.56;;;10.69;100.00
59053;BME280;44843;44.728;10.396;2022-11-15T00:11:11;100934.13;;;10.78;100.00
59053;BME280;44843;44.728;10.396;2022-11-15T00:13:37;100932.50;;;10.93;100.00
59053;BME280;44843;44.728;10.396;2022-11-15T00:16:03;100939.78;;;11.04;100.00
59053;BME280;44843;44.728;10.396;2022-11-15T00:18:29;100925.66;;;11.08;100.00
59053;BME280;44843;44.728;10.396;2022-11-15T00:20:55;100932.81;;;11.04;100.00
59053;BME280;44843;44.728;10.396;2022-11-15T00:23:21;100927.19;;;10.95;100.00
59053;BME280;44843;44.728;10.396;2022-11-15T00:25:46;100923.28;;;10.86;100.00
59053;BME280;44843;44.728;10.396;2022-11-15T00:28:12;100924.47;;;10.80;100.00
59053;BME280;44843;44.728;10.396;2022-11-15T00:30:37;100920.16;;;10.79;100.00
59053;BME280;44843;44.728;10.396;2022-11-15T00:33:06;100925.78;;;10.71;100.00
59053;BME280;44843;44.728;10.396;2022-11-15T00:35:32;100922.75;;;10.62;100.00
59053;BME280;44843;44.728;10.396;2022-11-15T00:38:02;100922.16;;;10.57;100.00
59053;BME280;44843;44.728;10.396;2022-11-15T00:40:27;100924.91;;;10.54;100.00
59053;BME280;44843;44.728;10.396;2022-11-15T00:42:53;100927.69;;;10.50;100.00
59053;BME280;44843;44.728;10.396;2022-11-15T00:45:18;100923.41;;;10.49;100.00
59053;BME280;44843;44.728;10.396;2022-11-15T00:47:45;100928.16;;;10.59;100.00
59053;BME280;44843;44.728;10.396;2022-11-15T00:50:11;100930.13;;;10.54;100.00
59053;BME280;44843;44.728;10.396;2022-11-15T00:52:37;100931.00;;;10.54;100.00
59053;BME280;44843;44.728;10.396;2022-11-15T00:55:02;100923.84;;;10.58;100.00
59053;BME280;44843;44.728;10.396;2022-11-15T00:57:28;100923.78;;;10.59;100.00
59053;BME280;44843;44.728;10.396;2022-11-15T00:59:53;100930.13;;;10.54;100.00
59053;BME280;44843;44.728;10.396;2022-11-15T01:02:18;100917.09;;;10.54;100.00
59053;BME280;44843;44.728;10.396;2022-11-15T01:04:44;100908.81;;;10.63;100.00
59053;BME280;44843;44.728;10.396;2022-11-15T01:07:09;100908.34;;;10.72;100.00
59053;BME280;44843;44.728;10.396;2022-11-15T01:09:35;100912.19;;;10.82;100.00
59053;BME280;44843;44.728;10.396;2022-11-15T01:12:00;100913.38;;;10.92;100.00
59053;BME280;44843;44.728;10.396;2022-11-15T01:14:25;100912.47;;;10.93;100.00
59053;BME280;44843;44.728;10.396;2022-11-15T01:16:51;100903.75;;;10.77;100.00
59053;BME280;44843;44.728;10.396;2022-11-15T01:19:16;100894.38;;;10.73;100.00
59053;BME280;44843;44.728;10.396;2022-11-15T01:21:42;100904.13;;;10.69;100.00
59053;BME280;44843;44.728;10.396;2022-11-15T01:24:08;100907.28;;;10.59;100.00
59053;BME280;44843;44.728;10.396;2022-11-15T01:26:36;100911.97;;;10.52;100.00
59053;BME280;44843;44.728;10.396;2022-11-15T01:29:02;100905.97;;;10.50;100.00
59053;BME280;44843;44.728;10.396;2022-11-15T01:31:28;100904.22;;;10.50;100.00
59053;BME280;44843;44.728;10.396;2022-11-15T01:33:53;100892.41;;;10.43;100.00
59053;BME280;44843;44.728;10.396;2022-11-15T01:36:21;100894.25;;;10.41;100.00
59053;BME280;44843;44.728;10.396;2022-11-15T01:38:58;100888.19;;;10.41;100.00
59053;BME280;44843;44.728;10.396;2022-11-15T01:41:26;100894.53;;;10.35;100.00
59053;BME280;44843;44.728;10.396;2022-11-15T01:43:53;100885.25;;;10.29;100.00
59053;BME280;44843;44.728;10.396;2022-11-15T01:48:44;100885.13;;;10.33;100.00
59053;BME280;44843;44.728;10.396;2022-11-15T01:51:12;100871.41;;;10.27;100.00
59053;BME280;44843;44.728;10.396;2022-11-15T01:53:40;100867.97;;;10.27;100.00
59053;BME280;44843;44.728;10.396;2022-11-15T01:56:13;100860.03;;;10.30;100.00
59053;BME280;44843;44.728;10.396;2022-11-15T01:58:40;100865.88;;;10.35;100.00
59053;BME280;44843;44.728;10.396;2022-11-15T02:01:06;100872.09;;;10.50;100.00
59053;BME280;44843;44.728;10.396;2022-11-15T02:03:58;100868.16;;;10.59;100.00
59053;BME280;44843;44.728;10.396;2022-11-15T02:06:22;100863.47;;;10.65;100.00
59053;BME280;44843;44.728;10.396;2022-11-15T02:08:49;100864.03;;;10.55;100.00
59053;BME280;44843;44.728;10.396;2022-11-15T02:11:14;100862.19;;;10.39;100.00
59053;BME280;44843;44.728;10.396;2022-11-15T02:13:40;100855.44;;;10.35;100.00
59053;BME280;44843;44.728;10.396;2022-11-15T02:22:14;100843.66;;;10.26;100.00
59053;BME280;44843;44.728;10.396;2022-11-15T02:30:32;100830.72;;;10.25;100.00
59053;BME280;44843;44.728;10.396;2022-11-15T02:33:11;100831.41;;;10.28;100.00
59053;BME280;44843;44.728;10.396;2022-11-15T02:36:00;100821.22;;;10.24;100.00
59053;BME280;44843;44.728;10.396;2022-11-15T02:38:40;100817.06;;;10.20;100.00
59053;BME280;44843;44.728;10.396;2022-11-15T02:41:12;100813.41;;;10.24;100.00
59053;BME280;44843;44.728;10.396;2022-11-15T02:43:48;100812.56;;;10.23;100.00
59053;BME280;44843;44.728;10.396;2022-11-15T02:46:39;100809.09;;;10.23;100.00
59053;BME280;44843;44.728;10.396;2022-11-15T02:49:29;100804.38;;;10.31;100.00
59053;BME280;44843;44.728;10.396;2022-11-15T02:51:57;100802.44;;;10.52;100.00
59053;BME280;44843;44.728;10.396;2022-11-15T02:54:25;100805.09;;;10.68;100.00
59053;BME280;44843;44.728;10.396;2022-11-15T02:56:53;100800.16;;;10.79;100.00
59053;BME280;44843;44.728;10.396;2022-11-15T02:59:29;100801.69;;;10.83;100.00
59053;BME280;44843;44.728;10.396;2022-11-15T03:10:45;100802.50;;;10.68;100.00
59053;BME280;44843;44.728;10.396;2022-11-15T03:13:24;100788.69;;;10.66;100.00
59053;BME280;44843;44.728;10.396;2022-11-15T03:16:19;100787.91;;;10.64;100.00
59053;BME280;44843;44.728;10.396;2022-11-15T03:18:46;100798.03;;;10.70;100.00
59053;BME280;44843;44.728;10.396;2022-11-15T03:21:13;100799.28;;;10.63;100.00
59053;BME280;44843;44.728;10.396;2022-11-15T03:23:41;100795.81;;;10.62;100.00
59053;BME280;44843;44.728;10.396;2022-11-15T03:26:12;100795.75;;;10.64;100.00
59053;BME280;44843;44.728;10.396;2022-11-15T03:29:02;100797.66;;;10.60;100.00
59053;BME280;44843;44.728;10.396;2022-11-15T03:31:32;100802.09;;;10.58;100.00
59053;BME280;44843;44.728;10.396;2022-11-15T03:34:26;100804.56;;;10.61;100.00
59053;BME280;44843;44.728;10.396;2022-11-15T03:36:53;100795.06;;;10.60;100.00
59053;BME280;44843;44.728;10.396;2022-11-15T03:39:19;100794.84;;;10.65;100.00
59053;BME280;44843;44.728;10.396;2022-11-15T03:41:50;100801.72;;;10.66;100.00
59053;BME280;44843;44.728;10.396;2022-11-15T03:47:32;100798.44;;;10.96;100.00
59053;BME280;44843;44.728;10.396;2022-11-15T03:50:03;100789.44;;;11.01;100.00
59053;BME280;44843;44.728;10.396;2022-11-15T03:52:32;100790.56;;;11.13;100.00
59053;BME280;44843;44.728;10.396;2022-11-15T03:55:00;100793.50;;;11.07;100.00
59053;BME280;44843;44.728;10.396;2022-11-15T03:57:26;100794.41;;;11.06;100.00
59053;BME280;44843;44.728;10.396;2022-11-15T03:59:51;100786.16;;;10.98;100.00
59053;BME280;44843;44.728;10.396;2022-11-15T04:02:17;100785.53;;;10.92;100.00
59053;BME280;44843;44.728;10.396;2022-11-15T04:04:42;100782.16;;;10.90;100.00
59053;BME280;44843;44.728;10.396;2022-11-15T04:07:08;100784.19;;;10.85;100.00
59053;BME280;44843;44.728;10.396;2022-11-15T04:09:33;100787.81;;;10.83;100.00
59053;BME280;44843;44.728;10.396;2022-11-15T04:12:18;100777.19;;;10.86;100.00
59053;BME280;44843;44.728;10.396;2022-11-15T04:14:57;100767.69;;;10.85;100.00
59053;BME280;44843;44.728;10.396;2022-11-15T04:17:47;100774.66;;;10.84;100.00
59053;BME280;44843;44.728;10.396;2022-11-15T04:20:25;100779.16;;;10.82;100.00
59053;BME280;44843;44.728;10.396;2022-11-15T04:23:17;100777.75;;;10.75;100.00
59053;BME280;44843;44.728;10.396;2022-11-15T04:26:04;100775.41;;;10.70;100.00
59053;BME280;44843;44.728;10.396;2022-11-15T04:28:30;100773.50;;;10.74;100.00
59053;BME280;44843;44.728;10.396;2022-11-15T04:30:56;100759.38;;;10.78;100.00
59053;BME280;44843;44.728;10.396;2022-11-15T04:33:22;100775.84;;;10.79;100.00
59053;BME280;44843;44.728;10.396;2022-11-15T04:35:47;100775.91;;;10.77;100.00
59053;BME280;44843;44.728;10.396;2022-11-15T04:38:33;100778.97;;;10.85;100.00
59053;BME280;44843;44.728;10.396;2022-11-15T04:40:59;100781.78;;;10.98;100.00
59053;BME280;44843;44.728;10.396;2022-11-15T04:43:24;100763.50;;;11.14;100.00
59053;BME280;44843;44.728;10.396;2022-11-15T04:45:50;100771.44;;;11.28;100.00
59053;BME280;44843;44.728;10.396;2022-11-15T04:48:15;100771.91;;;11.19;100.00
59053;BME280;44843;44.728;10.396;2022-11-15T04:50:40;100767.38;;;11.23;100.00
59053;BME280;44843;44.728;10.396;2022-11-15T04:53:06;100758.09;;;11.17;100.00
59053;BME280;44843;44.728;10.396;2022-11-15T04:55:31;100763.75;;;11.09;100.00
59053;BME280;44843;44.728;10.396;2022-11-15T04:57:58;100762.69;;;11.13;100.00
59053;BME280;44843;44.728;10.396;2022-11-15T05:00:25;100758.88;;;11.03;100.00
59053;BME280;44843;44.728;10.396;2022-11-15T05:02:51;100755.75;;;10.97;100.00
59053;BME280;44843;44.728;10.396;2022-11-15T05:05:35;100765.28;;;10.98;100.00
59053;BME280;44843;44.728;10.396;2022-11-15T05:08:00;100764.09;;;10.87;100.00
59053;BME280;44843;44.728;10.396;2022-11-15T05:10:26;100759.63;;;10.89;100.00
59053;BME280;44843;44.728;10.396;2022-11-15T05:12:51;100755.31;;;10.88;100.00
59053;BME280;44843;44.728;10.396;2022-11-15T05:15:16;100750.03;;;10.90;100.00
59053;BME280;44843;44.728;10.396;2022-11-15T05:17:42;100748.44;;;10.87;100.00
59053;BME280;44843;44.728;10.396;2022-11-15T05:20:08;100743.28;;;10.86;100.00
59053;BME280;44843;44.728;10.396;2022-11-15T05:22:33;100752.97;;;10.84;100.00
59053;BME280;44843;44.728;10.396;2022-11-15T05:24:58;100747.16;;;10.79;100.00
59053;BME280;44843;44.728;10.396;2022-11-15T05:27:24;100742.44;;;10.69;100.00
59053;BME280;44843;44.728;10.396;2022-11-15T05:29:49;100733.28;;;10.78;100.00
59053;BME280;44843;44.728;10.396;2022-11-15T05:32:16;100741.09;;;10.78;100.00
59053;BME280;44843;44.728;10.396;2022-11-15T05:34:42;100742.03;;;10.93;100.00
59053;BME280;44843;44.728;10.396;2022-11-15T05:37:07;100740.19;;;11.11;100.00
59053;BME280;44843;44.728;10.396;2022-11-15T05:39:32;100750.13;;;11.20;100.00
59053;BME280;44843;44.728;10.396;2022-11-15T05:42:16;100740.94;;;11.29;100.00
59053;BME280;44843;44.728;10.396;2022-11-15T05:44:45;100734.03;;;11.28;100.00
59053;BME280;44843;44.728;10.396;2022-11-15T05:47:17;100733.53;;;11.21;100.00
59053;BME280;44843;44.728;10.396;2022-11-15T05:49:44;100737.47;;;11.12;100.00
59053;BME280;44843;44.728;10.396;2022-11-15T05:52:13;100743.06;;;11.06;100.00
59053;BME280;44843;44.728;10.396;2022-11-15T05:54:40;100743.28;;;11.02;100.00
59053;BME280;44843;44.728;10.396;2022-11-15T05:57:06;100741.81;;;10.98;100.00
59053;BME280;44843;44.728;10.396;2022-11-15T05:59:33;100747.59;;;10.87;100.00
59053;BME280;44843;44.728;10.396;2022-11-15T06:01:59;100740.59;;;10.87;100.00
59053;BME280;44843;44.728;10.396;2022-11-15T06:04:25;100749.84;;;10.77;100.00
59053;BME280;44843;44.728;10.396;2022-11-15T06:06:50;100742.63;;;10.82;100.00
59053;BME280;44843;44.728;10.396;2022-11-15T06:09:16;100746.59;;;10.89;100.00
59053;BME280;44843;44.728;10.396;2022-11-15T06:11:41;100750.03;;;10.90;100.00
59053;BME280;44843;44.728;10.396;2022-11-15T06:14:07;100742.13;;;10.91;100.00
59053;BME280;44843;44.728;10.396;2022-11-15T06:16:32;100747.16;;;10.79;100.00
59053;BME280;44843;44.728;10.396;2022-11-15T06:18:58;100738.91;;;10.86;100.00
59053;BME280;44843;44.728;10.396;2022-11-15T06:21:23;100744.28;;;10.83;100.00
59053;BME280;44843;44.728;10.396;2022-11-15T06:23:48;100745.91;;;10.86;100.00
59053;BME280;44843;44.728;10.396;2022-11-15T06:26:14;100744.22;;;10.85;100.00
59053;BME280;44843;44.728;10.396;2022-11-15T06:28:39;100749.28;;;11.04;100.00
59053;BME280;44843;44.728;10.396;2022-11-15T06:31:06;100754.78;;;11.15;100.00
59053;BME280;44843;44.728;10.396;2022-11-15T06:33:32;100748.34;;;11.21;100.00
59053;BME280;44843;44.728;10.396;2022-11-15T06:36:05;100751.06;;;11.35;100.00
59053;BME280;44843;44.728;10.396;2022-11-15T06:38:31;100748.72;;;11.30;100.00
59053;BME280;44843;44.728;10.396;2022-11-15T06:41:08;100751.81;;;11.21;100.00
59053;BME280;44843;44.728;10.396;2022-11-15T06:43:34;100760.81;;;11.16;100.00
59053;BME280;44843;44.728;10.396;2022-11-15T06:46:01;100756.78;;;11.10;100.00
59053;BME280;44843;44.728;10.396;2022-11-15T06:48:28;100766.38;;;11.09;100.00
59053;BME280;44843;44.728;10.396;2022-11-15T06:50:55;100761.22;;;11.08;100.00
59053;BME280;44843;44.728;10.396;2022-11-15T06:53:21;100758.63;;;11.08;100.00
59053;BME280;44843;44.728;10.396;2022-11-15T06:55:46;100766.88;;;11.00;100.00
59053;BME280;44843;44.728;10.396;2022-11-15T06:58:12;100763.84;;;10.92;100.00
59053;BME280;44843;44.728;10.396;2022-11-15T07:00:37;100768.59;;;10.84;100.00
59053;BME280;44843;44.728;10.396;2022-11-15T07:03:03;100765.75;;;10.88;100.00
59053;BME280;44843;44.728;10.396;2022-11-15T07:05:29;100766.50;;;10.90;100.00
59053;BME280;44843;44.728;10.396;2022-11-15T07:07:55;100759.69;;;10.88;100.00
59053;BME280;44843;44.728;10.396;2022-11-15T07:10:22;100763.91;;;10.90;100.00
59053;BME280;44843;44.728;10.396;2022-11-15T07:12:49;100761.53;;;10.86;100.00
59053;BME280;44843;44.728;10.396;2022-11-15T07:15:18;100771.22;;;10.84;100.00
59053;BME280;44843;44.728;10.396;2022-11-15T07:17:44;100772.75;;;10.88;100.00
59053;BME280;44843;44.728;10.396;2022-11-15T07:20:10;100778.22;;;10.83;100.00
59053;BME280;44843;44.728;10.396;2022-11-15T07:22:35;100773.31;;;10.93;100.00
59053;BME280;44843;44.728;10.396;2022-11-15T07:25:01;100764.44;;;11.13;100.00
59053;BME280;44843;44.728;10.396;2022-11-15T07:27:26;100764.25;;;11.32;100.00
59053;BME280;44843;44.728;10.396;2022-11-15T07:29:52;100758.63;;;11.40;100.00
59053;BME280;44843;44.728;10.396;2022-11-15T07:32:17;100760.31;;;11.41;100.00
59053;BME280;44843;44.728;10.396;2022-11-15T07:34:42;100762.34;;;11.36;100.00
59053;BME280;44843;44.728;10.396;2022-11-15T07:37:08;100762.84;;;11.26;100.00
59053;BME280;44843;44.728;10.396;2022-11-15T07:39:34;100764.44;;;11.29;100.00
59053;BME280;44843;44.728;10.396;2022-11-15T07:41:59;100756.25;;;11.19;100.00
59053;BME280;44843;44.728;10.396;2022-11-15T07:44:43;100764.09;;;11.19;100.00
59053;BME280;44843;44.728;10.396;2022-11-15T07:47:09;100759.88;;;11.17;100.00
59053;BME280;44843;44.728;10.396;2022-11-15T07:49:34;100756.44;;;11.16;100.00
59053;BME280;44843;44.728;10.396;2022-11-15T07:51:59;100757.63;;;11.26;100.00
59053;BME280;44843;44.728;10.396;2022-11-15T07:54:25;100751.47;;;11.27;100.00
59053;BME280;44843;44.728;10.396;2022-11-15T07:56:50;100749.69;;;11.28;100.00
59053;BME280;44843;44.728;10.396;2022-11-15T07:59:15;100750.56;;;11.28;100.00
59053;BME280;44843;44.728;10.396;2022-11-15T08:01:40;100754.84;;;11.29;100.00
59053;BME280;44843;44.728;10.396;2022-11-15T08:04:05;100755.94;;;11.25;100.00
59053;BME280;44843;44.728;10.396;2022-11-15T08:06:31;100749.63;;;11.29;100.00
59053;BME280;44843;44.728;10.396;2022-11-15T08:08:56;100759.47;;;11.24;100.00
59053;BME280;44843;44.728;10.396;2022-11-15T08:11:21;100750.38;;;11.31;100.00
59053;BME280;44843;44.728;10.396;2022-11-15T08:13:46;100749.09;;;11.39;100.00
59053;BME280;44843;44.728;10.396;2022-11-15T08:16:12;100757.28;;;11.48;100.00
59053;BME280;44843;44.728;10.396;2022-11-15T08:18:37;100755.47;;;11.65;100.00
59053;BME280;44843;44.728;10.396;2022-11-15T08:21:03;100751.06;;;11.81;100.00
59053;BME280;44843;44.728;10.396;2022-11-15T08:23:28;100747.09;;;11.90;100.00
59053;BME280;44843;44.728;10.396;2022-11-15T08:26:01;100748.97;;;11.88;100.00
59053;BME280;44843;44.728;10.396;2022-11-15T08:28:26;100757.88;;;11.84;100.00
59053;BME280;44843;44.728;10.396;2022-11-15T08:30:52;100756.38;;;11.80;100.00
59053;BME280;44843;44.728;10.396;2022-11-15T08:33:17;100749.72;;;11.74;100.00
59053;BME280;44843;44.728;10.396;2022-11-15T08:35:42;100748.22;;;11.70;100.00
59053;BME280;44843;44.728;10.396;2022-11-15T08:38:08;100744.94;;;11.66;100.00
59053;BME280;44843;44.728;10.396;2022-11-15T08:40:34;100754.56;;;11.66;100.00
59053;BME280;44843;44.728;10.396;2022-11-15T08:42:59;100753.13;;;11.60;100.00
59053;BME280;44843;44.728;10.396;2022-11-15T08:45:27;100756.56;;;11.61;100.00
59053;BME280;44843;44.728;10.396;2022-11-15T08:47:52;100749.75;;;11.58;100.00
59053;BME280;44843;44.728;10.396;2022-11-15T08:50:18;100745.47;;;11.57;100.00
59053;BME280;44843;44.728;10.396;2022-11-15T08:52:43;100751.53;;;11.58;100.00
59053;BME280;44843;44.728;10.396;2022-11-15T08:55:09;100743.44;;;11.62;100.00
59053;BME280;44843;44.728;10.396;2022-11-15T08:57:34;100741.09;;;11.58;100.00
59053;BME280;44843;44.728;10.396;2022-11-15T08:59:59;100739.03;;;11.63;100.00
59053;BME280;44843;44.728;10.396;2022-11-15T09:02:25;100737.66;;;11.71;100.00
59053;BME280;44843;44.728;10.396;2022-11-15T09:04:50;100734.16;;;11.72;100.00
59053;BME280;44843;44.728;10.396;2022-11-15T09:07:15;100738.63;;;11.70;100.00
59053;BME280;44843;44.728;10.396;2022-11-15T09:09:41;100733.03;;;11.77;100.00
59053;BME280;44843;44.728;10.396;2022-11-15T09:12:06;100737.13;;;11.97;100.00
59053;BME280;44843;44.728;10.396;2022-11-15T09:14:32;100732.69;;;12.13;100.00
59053;BME280;44843;44.728;10.396;2022-11-15T09:16:58;100732.03;;;12.24;100.00
59053;BME280;44843;44.728;10.396;2022-11-15T09:19:23;100718.41;;;12.33;100.00
59053;BME280;44843;44.728;10.396;2022-11-15T09:21:49;100724.03;;;12.27;100.00
59053;BME280;44843;44.728;10.396;2022-11-15T09:24:14;100726.41;;;12.15;100.00
59053;BME280;44843;44.728;10.396;2022-11-15T09:26:40;100735.56;;;12.08;100.00
59053;BME280;44843;44.728;10.396;2022-11-15T09:29:05;100736.41;;;12.09;100.00
59053;BME280;44843;44.728;10.396;2022-11-15T09:31:30;100731.16;;;12.09;100.00
59053;BME280;44843;44.728;10.396;2022-11-15T09:33:56;100726.22;;;12.04;100.00
59053;BME280;44843;44.728;10.396;2022-11-15T09:36:21;100725.38;;;12.04;100.00
59053;BME280;44843;44.728;10.396;2022-11-15T09:38:46;100724.63;;;12.02;100.00
59053;BME280;44843;44.728;10.396;2022-11-15T09:48:40;100711.41;;;12.05;100.00
59053;BME280;44843;44.728;10.396;2022-11-15T09:51:18;100719.25;;;12.05;100.00
59053;BME280;44843;44.728;10.396;2022-11-15T09:53:50;100720.25;;;12.02;100.00
59053;BME280;44843;44.728;10.396;2022-11-15T09:56:21;100710.91;;;11.98;100.00
59053;BME280;44843;44.728;10.396;2022-11-15T10:01:39;100718.84;;;11.97;100.00
59053;BME280;44843;44.728;10.396;2022-11-15T10:04:08;100706.66;;;12.11;100.00
59053;BME280;44843;44.728;10.396;2022-11-15T10:06:34;100705.53;;;12.30;100.00
59053;BME280;44843;44.728;10.396;2022-11-15T10:09:12;100691.06;;;12.39;100.00
59053;BME280;44843;44.728;10.396;2022-11-15T10:11:38;100689.47;;;12.50;100.00
59053;BME280;44843;44.728;10.396;2022-11-15T10:14:11;100677.78;;;12.56;100.00
59053;BME280;44843;44.728;10.396;2022-11-15T10:24:37;100672.22;;;12.33;100.00
59053;BME280;44843;44.728;10.396;2022-11-15T10:27:16;100673.41;;;12.28;100.00
59053;BME280;44843;44.728;10.396;2022-11-15T10:29:48;100670.88;;;12.26;100.00
59053;BME280;44843;44.728;10.396;2022-11-15T10:32:15;100653.44;;;12.27;100.00
59053;BME280;44843;44.728;10.396;2022-11-15T10:34:41;100644.47;;;12.16;100.00
59053;BME280;44843;44.728;10.396;2022-11-15T10:37:07;100647.91;;;12.17;100.00
59053;BME280;44843;44.728;10.396;2022-11-15T10:39:33;100645.97;;;12.21;100.00
59053;BME280;44843;44.728;10.396;2022-11-15T10:42:15;100651.00;;;12.24;100.00
59053;BME280;44843;44.728;10.396;2022-11-15T10:44:42;100636.06;;;12.11;100.00
59053;BME280;44843;44.728;10.396;2022-11-15T10:47:31;100625.63;;;12.11;100.00
59053;BME280;44843;44.728;10.396;2022-11-15T10:50:00;100628.31;;;12.10;100.00
59053;BME280;44843;44.728;10.396;2022-11-15T10:52:28;100622.13;;;12.11;100.00
59053;BME280;44843;44.728;10.396;2022-11-15T10:57:38;100618.59;;;12.26;100.00
59053;BME280;44843;44.728;10.396;2022-11-15T11:00:31;100615.75;;;12.44;100.00
59053;BME280;44843;44.728;10.396;2022-11-15T11:03:29;100614.63;;;12.62;100.00
59053;BME280;44843;44.728;10.396;2022-11-15T11:06:12;100616.56;;;12.73;100.00
59053;BME280;44843;44.728;10.396;2022-11-15T11:08:38;100610.84;;;12.81;100.00
59053;BME280;44843;44.728;10.396;2022-11-15T11:11:05;100598.72;;;12.65;100.00
59053;BME280;44843;44.728;10.396;2022-11-15T11:13:35;100591.56;;;12.54;100.00
59053;BME280;44843;44.728;10.396;2022-11-15T11:16:19;100586.25;;;12.42;100.00
59053;BME280;44843;44.728;10.396;2022-11-15T11:19:28;100584.97;;;12.34;100.00
59053;BME280;44843;44.728;10.396;2022-11-15T11:22:09;100580.97;;;12.29;100.00
59053;BME280;44843;44.728;10.396;2022-11-15T11:27:26;100581.16;;;12.26;100.00
59053;BME280;44843;44.728;10.396;2022-11-15T11:37:52;100575.38;;;12.21;100.00
59053;BME280;44843;44.728;10.396;2022-11-15T11:40:43;100564.00;;;12.07;100.00
59053;BME280;44843;44.728;10.396;2022-11-15T11:45:53;100562.97;;;11.95;100.00
59053;BME280;44843;44.728;10.396;2022-11-15T11:51:11;100562.03;;;12.11;100.00
59053;BME280;44843;44.728;10.396;2022-11-15T11:53:49;100553.50;;;12.22;100.00
59053;BME280;44843;44.728;10.396;2022-11-15T11:56:28;100557.97;;;12.34;100.00
59053;BME280;44843;44.728;10.396;2022-11-15T11:58:57;100549.94;;;12.37;100.00
59053;BME280;44843;44.728;10.396;2022-11-15T12:01:30;100549.16;;;12.49;100.00
59053;BME280;44843;44.728;10.396;2022-11-15T12:04:14;100542.22;;;12.35;100.00
59053;BME280;44843;44.728;10.396;2022-11-15T12:06:42;100544.41;;;12.42;100.00
59053;BME280;44843;44.728;10.396;2022-11-15T12:09:33;100546.50;;;12.36;100.00
59053;BME280;44843;44.728;10.396;2022-11-15T12:12:11;100546.63;;;12.21;100.00
59053;BME280;44843;44.728;10.396;2022-11-15T12:14:51;100540.56;;;12.20;100.00
59053;BME280;44843;44.728;10.396;2022-11-15T12:17:23;100537.44;;;12.28;100.00
59053;BME280;44843;44.728;10.396;2022-11-15T12:19:49;100530.72;;;12.24;100.00
59053;BME280;44843;44.728;10.396;2022-11-15T12:22:21;100528.03;;;12.25;100.00
59053;BME280;44843;44.728;10.396;2022-11-15T12:27:37;100527.94;;;12.27;100.00
59053;BME280;44843;44.728;10.396;2022-11-15T12:30:12;100520.28;;;12.24;100.00
59053;BME280;44843;44.728;10.396;2022-11-15T12:32:40;100510.56;;;12.26;100.00
59053;BME280;44843;44.728;10.396;2022-11-15T12:35:36;100513.19;;;12.26;100.00
59053;BME280;44843;44.728;10.396;2022-11-15T12:38:03;100501.72;;;12.14;100.00
59053;BME280;44843;44.728;10.396;2022-11-15T12:40:34;100494.94;;;12.11;100.00
59053;BME280;44843;44.728;10.396;2022-11-15T12:45:39;100489.84;;;12.23;100.00
59053;BME280;44843;44.728;10.396;2022-11-15T12:58:59;100455.31;;;12.45;100.00
59053;BME280;44843;44.728;10.396;2022-11-15T13:06:55;100458.09;;;12.29;100.00
59053;BME280;44843;44.728;10.396;2022-11-15T13:15:00;100457.53;;;12.24;100.00
59053;BME280;44843;44.728;10.396;2022-11-15T13:17:54;100452.28;;;12.24;100.00
59053;BME280;44843;44.728;10.396;2022-11-15T13:20:23;100448.75;;;12.25;100.00
59053;BME280;44843;44.728;10.396;2022-11-15T13:23:15;100448.63;;;12.13;100.00
59053;BME280;44843;44.728;10.396;2022-11-15T13:31:34;100449.75;;;12.09;100.00
59053;BME280;44843;44.728;10.396;2022-11-15T13:34:20;100438.41;;;11.96;100.00
59053;BME280;44843;44.728;10.396;2022-11-15T13:36:47;100426.44;;;11.92;100.00
59053;BME280;44843;44.728;10.396;2022-11-15T13:39:26;100425.09;;;11.85;100.00
59053;BME280;44843;44.728;10.396;2022-11-15T13:41:52;100432.13;;;11.99;100.00
59053;BME280;44843;44.728;10.396;2022-11-15T13:44:23;100429.97;;;11.91;100.00
59053;BME280;44843;44.728;10.396;2022-11-15T13:46:49;100422.00;;;12.07;100.00
59053;BME280;44843;44.728;10.396;2022-11-15T13:49:29;100430.56;;;12.23;100.00
59053;BME280;44843;44.728;10.396;2022-11-15T13:51:56;100423.69;;;12.35;100.00
59053;BME280;44843;44.728;10.396;2022-11-15T13:54:30;100427.19;;;12.21;100.00
59053;BME280;44843;44.728;10.396;2022-11-15T13:56:57;100431.97;;;12.14;100.00
59053;BME280;44843;44.728;10.396;2022-11-15T13:59:35;100430.56;;;11.96;100.00
59053;BME280;44843;44.728;10.396;2022-11-15T14:02:14;100422.13;;;12.05;100.00
59053;BME280;44843;44.728;10.396;2022-11-15T14:04:53;100428.38;;;12.03;100.00
59053;BME280;44843;44.728;10.396;2022-11-15T14:07:23;100424.38;;;11.97;100.00
59053;BME280;44843;44.728;10.396;2022-11-15T14:09:49;100422.31;;;12.02;100.00
59053;BME280;44843;44.728;10.396;2022-11-15T14:14:56;100415.78;;;11.95;100.00
59053;BME280;44843;44.728;10.396;2022-11-15T14:19:53;100421.84;;;11.95;100.00
59053;BME280;44843;44.728;10.396;2022-11-15T14:22:27;100412.88;;;12.00;100.00
59053;BME280;44843;44.728;10.396;2022-11-15T14:27:42;100410.94;;;11.89;100.00